Time;durP1;ratioP1;P1;durP2;ratioP2;P2;SDS_P1;SDS_P2;PMS_P1;PMS_P2;Temp;Humidity;BMP_temperature;BMP_pressure;BME280_temperature;BME280_humidity;BME280_pressure;Samples;Min_cycle;Max_cycle;Signal;HPM_P1;HPM_P2
2022/04/19 00:01:15;;;;;;;12.90;6.70;;;;;;;6.55;40.35;100128.58;109113;1271;23709;-81
2022/04/19 00:03:54;;;;;;;9.40;5.70;;;;;;;6.53;40.43;100122.27;108868;1273;21990;-82
2022/04/19 00:06:35;;;;;;;7.90;5.20;;;;;;;6.54;40.59;100106.23;108871;1273;23873;-81
2022/04/19 00:09:31;;;;;;;10.50;6.50;;;;;;;6.54;40.65;100104.55;109341;1267;22015;-82
2022/04/19 00:12:26;;;;;;;8.40;6.20;;;;;;;6.53;40.91;100107.39;109150;1267;22098;-82
2022/04/19 00:15:09;;;;;;;14.10;6.90;;;;;;;6.54;40.83;100104.00;109618;1264;22000;-81
2022/04/19 00:18:03;;;;;;;;;;;;;;;;;;;;;
2022/04/19 00:20:45;;;;;;;9.70;5.30;;;;;;;6.52;41.06;100112.07;109281;1267;21983;-81
2022/04/19 00:23:32;;;;;;;9.50;5.70;;;;;;;6.51;41.15;100110.42;108977;1270;21993;-80
2022/04/19 00:26:21;;;;;;;8.20;6.10;;;;;;;6.49;41.29;100107.12;109049;1270;22077;-80
2022/04/19 00:29:08;;;;;;;11.40;6.20;;;;;;;6.47;41.36;100110.47;108711;1276;22012;-81
2022/04/19 00:31:44;;;;;;;8.10;5.80;;;;;;;6.45;41.42;100113.60;108580;1276;22008;-80
2022/04/19 00:34:45;;;;;;;;;;;;;;;;;;;;;
2022/04/19 00:37:21;;;;;;;8.20;5.20;;;;;;;6.37;41.57;100107.15;108682;1273;24307;-81
2022/04/19 00:40:09;;;;;;;9.20;6.00;;;;;;;6.35;41.66;100101.76;108999;1273;23030;-81
2022/04/19 00:42:51;;;;;;;10.90;6.80;;;;;;;6.33;41.63;100103.56;108856;1270;21984;-82
2022/04/19 00:45:36;;;;;;;;;;;;;;;6.29;41.67;100101.84;109065;1269;21982;-81
2022/04/19 00:48:31;;;;;;;;;;;;;;;;;;;;;
2022/04/19 00:51:56;;;;;;;9.20;6.70;;;;;;;6.17;41.82;100092.48;109774;1263;23106;-81
2022/04/19 00:54:41;;;;;;;10.70;6.20;;;;;;;6.16;41.82;100087.59;109558;1264;22435;-82
2022/04/19 00:57:18;;;;;;;11.70;6.00;;;;;;;6.15;41.85;100080.11;109406;1267;22479;-80
2022/04/19 01:00:09;;;;;;;7.60;6.10;;;;;;;6.16;41.83;100077.36;109218;1267;23676;-80
2022/04/19 01:03:18;;;;;;;10.40;6.40;;;;;;;6.12;41.88;100074.73;108993;1273;23691;-81
2022/04/19 01:05:56;;;;;;;10.40;7.50;;;;;;;6.11;42.00;100072.91;108700;1276;22036;-82
2022/04/19 01:08:34;;;;;;;9.40;6.80;;;;;;;6.12;42.15;100070.05;108550;1276;24472;-82
2022/04/19 01:14:18;;;;;;;15.90;6.60;;;;;;;6.13;42.37;100073.63;108503;1276;22928;-82
2022/04/19 01:17:15;;;;;;;8.60;7.00;;;;;;;6.10;42.36;100070.05;108492;1277;23713;-82
2022/04/19 01:19:55;;;;;;;10.50;6.70;;;;;;;6.07;42.39;100070.54;108422;1276;22006;-80
2022/04/19 01:22:49;;;;;;;14.80;7.80;;;;;;;6.03;42.46;100070.23;108690;1273;23219;-81
2022/04/19 01:25:45;;;;;;;;;;;;;;;;;;;;;
2022/04/19 01:28:23;;;;;;;11.60;7.90;;;;;;;5.98;42.73;100067.38;108919;1274;23589;-80
2022/04/19 01:30:59;;;;;;;11.20;8.30;;;;;;;5.95;42.78;100061.34;108649;1273;22462;-82
2022/04/19 01:33:44;;;;;;;15.70;8.60;;;;;;;5.93;42.85;100060.86;108389;1280;22012;-81
2022/04/19 01:36:29;;;;;;;11.40;7.70;;;;;;;5.87;42.84;100060.88;108156;1282;23715;-79
2022/04/19 01:39:13;;;;;;;10.80;7.20;;;;;;;5.80;42.82;100059.77;108257;1282;22010;-80
2022/04/19 01:42:30;;;;;;;11.80;7.20;;;;;;;5.72;43.12;100058.45;108417;1282;22015;-82
2022/04/19 01:45:17;;;;;;;11.80;7.30;;;;;;;5.68;43.28;100052.34;108753;1279;22503;-83
2022/04/19 01:48:15;;;;;;;10.80;7.90;;;;;;;5.66;43.42;100053.20;108828;1276;23708;-80
2022/04/19 01:50:56;;;;;;;13.00;7.60;;;;;;;5.65;43.53;100051.94;108767;1275;22055;-83
2022/04/19 01:53:40;;;;;;;10.40;7.90;;;;;;;5.65;43.60;100051.39;108903;1273;21994;-80
2022/04/19 01:56:20;;;;;;;13.00;7.60;;;;;;;5.66;43.74;100051.11;108582;1279;22010;-81
2022/04/19 01:58:58;;;;;;;10.00;6.90;;;;;;;5.66;43.89;100049.35;108628;1279;22044;-83
2022/04/19 02:01:56;;;;;;;11.00;7.10;;;;;;;5.68;43.94;100044.84;109038;1273;21983;-81
2022/04/19 02:04:38;;;;;;;9.30;6.40;;;;;;;5.69;43.92;100042.50;108738;1276;22454;-81
2022/04/19 02:07:26;;;;;;;10.50;6.50;;;;;;;5.70;43.96;100042.35;108777;1277;22091;-82
2022/04/19 02:10:35;;;;;;;9.60;5.90;;;;;;;5.71;44.07;100042.31;108740;1276;22047;-81
2022/04/19 02:13:30;;;;;;;9.20;6.20;;;;;;;5.71;44.08;100047.91;108764;1276;25096;-82
2022/04/19 02:16:30;;;;;;;8.80;6.00;;;;;;;5.69;44.12;100040.56;108755;1276;22002;-81
2022/04/19 02:19:34;;;;;;;9.20;5.80;;;;;;;5.66;44.25;100033.84;108867;1273;21989;-80
2022/04/19 02:22:11;;;;;;;8.20;5.50;;;;;;;5.64;44.26;100033.11;108958;1270;21990;-81
2022/04/19 02:24:56;;;;;;;9.10;6.00;;;;;;;5.62;44.27;100033.36;109208;1270;22315;-80
2022/04/19 02:27:40;;;;;;;8.40;5.70;;;;;;;5.61;44.47;100030.80;109233;1270;21985;-80
2022/04/19 02:30:18;;;;;;;8.00;6.00;;;;;;;5.59;44.47;100028.19;109266;1270;21989;-81
2022/04/19 02:32:59;;;;;;;9.50;5.90;;;;;;;5.57;44.54;100031.20;109303;1270;21987;-83
2022/04/19 02:35:42;;;;;;;10.40;5.50;;;;;;;5.54;44.66;100030.91;109606;1263;22196;-82
2022/04/19 02:38:20;;;;;;;8.20;5.40;;;;;;;5.53;44.59;100034.19;109311;1267;23077;-82
2022/04/19 02:40:59;;;;;;;;;;;;;;;5.48;44.70;100032.19;109320;1267;21957;-85
2022/04/19 02:43:55;;;;;;;9.40;5.10;;;;;;;5.36;44.94;100026.30;108987;1273;22823;-82
2022/04/19 02:46:51;;;;;;;;;;;;;;;;;;;;;
2022/04/19 02:49:57;;;;;;;7.10;5.70;;;;;;;5.15;46.29;100025.45;108592;1276;22011;-81
2022/04/19 02:52:36;;;;;;;6.10;5.00;;;;;;;5.06;47.50;100014.60;108279;1282;23181;-80
2022/04/19 02:55:41;;;;;;;;;;;;;;;;;;;;;
2022/04/19 02:58:12;;;;;;;7.00;5.60;;;;;;;5.06;50.33;99989.10;108321;1282;23205;-81
2022/04/19 03:01:26;;;;;;;8.60;4.70;;;;;;;5.14;51.40;99982.58;107870;1284;21966;-82
2022/04/19 03:04:06;;;;;;;7.40;5.60;;;;;;;5.20;52.48;99976.11;108117;1279;23762;-81
2022/04/19 03:06:52;;;;;;;5.70;4.90;;;;;;;5.25;53.34;99967.61;108496;1279;22067;-80
2022/04/19 03:10:06;;;;;;;7.10;5.40;;;;;;;5.27;54.03;99964.63;108633;1273;22410;-80
2022/04/19 03:12:44;;;;;;;8.70;5.30;;;;;;;5.30;54.52;99969.50;108790;1272;22021;-80
2022/04/19 03:15:24;;;;;;;14.90;7.70;;;;;;;5.31;54.98;99979.30;108777;1273;21987;-80
2022/04/19 03:18:06;;;;;;;8.50;7.20;;;;;;;5.30;55.40;99981.87;108740;1270;23754;-81
2022/04/19 03:20:46;;;;;;;8.20;6.70;;;;;;;5.27;55.66;99983.17;109077;1270;21995;-80
2022/04/19 03:29:57;;;;;;;6.40;5.40;;;;;;;5.20;56.93;99970.55;109615;1263;23608;-81
2022/04/19 03:32:36;;;;;;;6.30;4.60;;;;;;;5.22;57.58;99981.87;109550;1263;22747;-82
2022/04/19 03:35:26;;;;;;;8.10;4.70;;;;;;;5.27;58.12;99991.89;109056;1267;23024;-80
2022/04/19 03:38:10;;;;;;;7.50;5.00;;;;;;;5.25;58.60;99996.98;108930;1267;23040;-80
2022/04/19 03:40:49;;;;;;;5.80;5.20;;;;;;;5.23;58.89;100001.36;109096;1267;21992;-79
2022/04/19 03:43:27;;;;;;;7.30;5.70;;;;;;;5.19;59.12;100004.55;108661;1273;22027;-83
2022/04/19 03:46:09;;;;;;;6.80;5.20;;;;;;;5.13;59.31;100001.35;109038;1270;22042;-80
2022/04/19 03:49:09;;;;;;;7.60;4.80;;;;;;;5.11;59.70;99993.71;108622;1277;22128;-81
2022/04/19 03:51:49;;;;;;;7.20;6.50;;;;;;;5.12;60.22;99991.13;108394;1278;23619;-79
2022/04/19 03:54:48;;;;;;;10.00;9.10;;;;;;;5.08;60.28;99991.71;108490;1275;23685;-80
2022/04/19 03:57:28;;;;;;;10.70;8.80;;;;;;;5.01;60.56;99994.79;108785;1273;22880;-80
2022/04/19 04:00:24;;;;;;;9.10;8.30;;;;;;;4.95;60.73;99994.95;108589;1279;22870;-80
2022/04/19 04:03:14;;;;;;;;;;;;;;;;;;;;;
2022/04/19 04:06:16;;;;;;;7.80;6.70;;;;;;;4.89;61.24;100001.50;108769;1270;21980;-80
2022/04/19 04:08:55;;;;;;;6.80;6.20;;;;;;;4.89;61.53;100002.73;108849;1273;21988;-80
2022/04/19 04:11:44;;;;;;;;;;;;;;;;;;;;;
2022/04/19 04:14:21;;;;;;;9.20;8.20;;;;;;;4.85;62.04;100013.34;109025;1270;21991;-80
2022/04/19 04:17:03;;;;;;;9.90;8.00;;;;;;;4.81;62.26;100017.02;108786;1273;22063;-79
2022/04/19 04:19:48;;;;;;;8.50;6.50;;;;;;;4.80;62.54;100018.59;108448;1273;22012;-79
2022/04/19 04:22:44;;;;;;;8.60;6.50;;;;;;;4.82;63.01;100020.68;108099;1282;21971;-79
2022/04/19 04:25:25;;;;;;;8.80;7.20;;;;;;;4.76;63.02;100025.38;108418;1276;22764;-80
2022/04/19 04:28:12;;;;;;;6.90;6.10;;;;;;;4.72;63.14;100028.30;108394;1273;21990;-79
2022/04/19 04:31:06;;;;;;;7.40;6.20;;;;;;;4.66;63.38;100029.39;108512;1275;21971;-79
2022/04/19 04:33:42;;;;;;;6.60;5.90;;;;;;;4.58;63.48;100032.86;108480;1273;23599;-79
2022/04/19 04:36:25;;;;;;;;;;;;;;;;;;;;;
2022/04/19 04:39:17;;;;;;;6.90;6.20;;;;;;;4.55;64.08;100032.69;108861;1270;22920;-79
2022/04/19 04:42:26;;;;;;;6.30;5.70;;;;;;;4.48;64.07;100030.97;109186;1263;21984;-79
2022/04/19 04:45:35;;;;;;;11.30;7.50;;;;;;;4.40;64.30;100031.54;109415;1263;21998;-79
2022/04/19 04:51:08;;;;;;;7.40;6.00;;;;;;;4.30;64.74;100030.87;109044;1267;21988;-79
2022/04/19 04:53:43;;;;;;;7.60;6.60;;;;;;;4.31;64.90;100025.56;108838;1270;21982;-79
2022/04/19 04:56:17;;;;;;;7.90;5.80;;;;;;;4.31;64.92;100026.45;108968;1267;22405;-79
2022/04/19 04:58:51;;;;;;;8.90;7.40;;;;;;;4.27;65.01;100024.51;108451;1273;23059;-80
2022/04/19 05:01:29;;;;;;;8.40;6.70;;;;;;;4.25;65.37;100027.84;108416;1277;22288;-80
2022/04/19 05:04:14;;;;;;;9.70;7.30;;;;;;;4.23;65.44;100024.30;108298;1277;23805;-79
2022/04/19 05:07:04;;;;;;;10.90;7.50;;;;;;;4.20;65.47;100020.95;108134;1277;23117;-79
2022/04/19 05:10:06;;;;;;;7.60;6.10;;;;;;;4.20;65.57;100023.02;108236;1279;22026;-79
2022/04/19 05:12:40;;;;;;;11.70;9.00;;;;;;;4.17;65.64;100021.83;108556;1279;21988;-79
2022/04/19 05:15:19;;;;;;;10.50;6.30;;;;;;;4.17;65.74;100023.66;108489;1276;22003;-79
2022/04/19 05:17:56;;;;;;;7.50;6.50;;;;;;;4.17;66.06;100023.14;108536;1276;23788;-80
2022/04/19 05:20:38;;;;;;;13.10;7.80;;;;;;;4.18;66.24;100025.62;109021;1270;21999;-80
2022/04/19 05:23:40;;;;;;;;;;;;;;;;;;;;;
2022/04/19 05:26:33;;;;;;;12.90;8.10;;;;;;;4.29;66.38;100029.73;108579;1273;22854;-79
2022/04/19 05:29:10;;;;;;;10.50;8.10;;;;;;;4.32;66.31;100030.29;108595;1273;22127;-80
2022/04/19 05:32:41;;;;;;;;;;;;;;;;;;;;;
2022/04/19 05:35:30;;;;;;;8.40;6.10;;;;;;;4.35;66.30;100036.19;108124;1285;22044;-79
2022/04/19 05:38:05;;;;;;;8.60;6.70;;;;;;;4.33;66.54;100031.32;107693;1286;22022;-80
2022/04/19 05:40:53;;;;;;;9.40;6.70;;;;;;;4.37;66.96;100030.05;107326;1290;22338;-80
2022/04/19 05:43:25;;;;;;;7.00;6.30;;;;;;;4.48;67.29;100027.99;107476;1289;22226;-80
2022/04/19 05:46:09;;;;;;;14.40;7.80;;;;;;;4.66;67.53;100025.59;107549;1290;22047;-78
2022/04/19 05:48:52;;;;;;;11.50;7.50;;;;;;;4.85;67.69;100031.34;107487;1287;22093;-79
2022/04/19 05:51:36;;;;;;;17.40;9.00;;;;;;;5.02;67.82;100032.79;108184;1285;22786;-79
2022/04/19 05:54:25;;;;;;;10.70;8.10;;;;;;;5.18;67.62;100027.23;107793;1285;22024;-81
2022/04/19 05:57:20;;;;;;;11.30;9.20;;;;;;;5.24;66.82;100025.86;108278;1279;22723;-80
2022/04/19 06:00:06;;;;;;;10.80;7.90;;;;;;;5.34;67.04;100029.80;108772;1273;23528;-79
2022/04/19 06:06:19;;;;;;;9.60;8.10;;;;;;;5.87;67.84;100025.94;108040;1282;23796;-79
2022/04/19 06:08:54;;;;;;;;;;;;;;;6.36;68.61;100022.48;108010;1281;22083;-79
2022/04/19 06:11:32;;;;;;;9.90;8.90;;;;;;;6.82;68.38;100023.77;108111;1281;22141;-79
2022/04/19 06:14:20;;;;;;;9.30;8.30;;;;;;;7.21;66.99;100024.72;108135;1282;22008;-79
2022/04/19 06:16:52;;;;;;;10.20;9.20;;;;;;;7.52;65.02;100022.35;108153;1275;23887;-80
2022/04/19 06:19:31;;;;;;;9.60;8.70;;;;;;;7.72;63.54;100021.37;108497;1275;24487;-80
2022/04/19 06:22:48;;;;;;;10.10;9.00;;;;;;;7.98;62.80;100023.62;108445;1275;23016;-79
2022/04/19 06:25:21;;;;;;;9.60;8.20;;;;;;;8.20;61.91;100025.16;108819;1270;23060;-79
2022/04/19 06:28:28;;;;;;;10.80;9.70;;;;;;;8.50;61.64;100026.04;108878;1270;22780;-83
2022/04/19 06:31:28;;;;;;;9.30;8.40;;;;;;;8.72;60.13;100026.50;108922;1270;22050;-78
2022/04/19 06:34:12;;;;;;;8.90;8.10;;;;;;;8.86;59.35;100029.27;108880;1270;21945;-79
2022/04/19 06:36:56;;;;;;;9.50;8.50;;;;;;;9.11;59.07;100035.36;108711;1270;22009;-80
2022/04/19 06:39:49;;;;;;;9.20;8.20;;;;;;;9.29;57.99;100032.14;108923;1271;21987;-78
2022/04/19 06:42:42;;;;;;;;;;;;;;;;;;;;;
2022/04/19 06:45:28;;;;;;;8.40;7.50;;;;;;;9.74;56.51;100042.34;109744;1263;21998;-78
2022/04/19 06:48:14;;;;;;;8.80;6.30;;;;;;;9.80;55.15;100045.50;109050;1270;22152;-79
2022/04/19 06:50:49;;;;;;;;;;;;;;;9.73;54.19;100045.42;108627;1276;22053;-78
2022/04/19 06:53:51;;;;;;;10.90;6.10;;;;;;;9.69;54.54;100049.92;108631;1275;23601;-77
2022/04/19 06:56:45;;;;;;;10.70;6.40;;;;;;;9.43;53.03;100049.26;108594;1276;22005;-79
2022/04/19 06:59:36;;;;;;;7.80;6.10;;;;;;;9.04;52.84;100049.73;108495;1275;22743;-79
2022/04/19 07:02:29;;;;;;;6.80;5.90;;;;;;;8.73;53.32;100047.30;108336;1277;23675;-79
2022/04/19 07:05:44;;;;;;;8.50;6.20;;;;;;;8.47;54.29;100050.20;108514;1270;22452;-77
2022/04/19 07:08:16;;;;;;;25.70;6.90;;;;;;;8.47;55.36;100053.48;108897;1265;21984;-79
2022/04/19 07:10:56;;;;;;;;;;;;;;;;;;;;;
2022/04/19 07:13:59;;;;;;;8.40;5.60;;;;;;;8.60;55.21;100060.45;109388;1264;21986;-76
2022/04/19 07:17:05;;;;;;;8.10;5.00;;;;;;;8.54;54.60;100069.48;109066;1270;22053;-78
2022/04/19 07:28:20;;;;;;;6.50;5.80;;;;;;;7.91;54.54;100073.92;108518;1274;22867;-77
2022/04/19 07:31:03;;;;;;;8.50;5.50;;;;;;;7.74;54.28;100073.02;108570;1276;21988;-77
2022/04/19 07:33:39;;;;;;;8.50;6.40;;;;;;;7.55;54.64;100073.33;108441;1276;22062;-78
2022/04/19 07:36:10;;;;;;;5.80;5.20;;;;;;;7.45;55.04;100074.23;108735;1270;21998;-77
2022/04/19 07:39:03;;;;;;;7.50;5.30;;;;;;;7.38;55.43;100081.39;109108;1266;22765;-79
2022/04/19 07:41:46;;;;;;;7.00;6.10;;;;;;;7.64;57.53;100077.85;108999;1267;23128;-77
2022/04/19 07:44:29;;;;;;;8.70;5.80;;;;;;;7.97;57.12;100072.59;109134;1267;22995;-77
2022/04/19 07:47:14;;;;;;;5.50;4.60;;;;;;;7.99;55.22;100077.61;109066;1264;23055;-77
2022/04/19 07:49:47;;;;;;;7.00;5.40;;;;;;;7.81;54.39;100077.42;109204;1264;23030;-78
2022/04/19 07:52:39;;;;;;;9.50;6.20;;;;;;;8.02;57.11;100077.67;109238;1264;23707;-78
2022/04/19 07:55:39;;;;;;;8.60;5.80;;;;;;;8.38;56.24;100080.60;109208;1267;22662;-79
2022/04/19 07:58:36;;;;;;;6.60;4.20;;;;;;;8.41;54.80;100080.13;106488;1267;3306332;-78
2022/04/19 08:01:19;;;;;;;5.40;4.90;;;;;;;8.31;54.01;100081.02;108907;1267;21990;-78
2022/04/19 08:04:10;;;;;;;8.40;4.90;;;;;;;8.19;53.92;100081.57;108549;1273;21999;-77
2022/04/19 08:07:00;;;;;;;6.80;4.70;;;;;;;8.17;54.28;100083.02;108360;1277;22001;-77
2022/04/19 08:09:39;;;;;;;6.60;4.20;;;;;;;8.42;55.71;100089.33;108175;1279;22585;-77
2022/04/19 08:12:48;;;;;;;5.20;4.70;;;;;;;8.93;56.35;100090.59;108341;1276;23628;-78
2022/04/19 08:15:57;;;;;;;5.60;4.00;;;;;;;9.21;52.98;100098.23;108404;1276;22041;-76
2022/04/19 08:18:43;;;;;;;4.90;3.60;;;;;;;8.97;51.49;100102.55;108396;1279;22504;-77
2022/04/19 08:21:27;;;;;;;11.00;5.30;;;;;;;8.66;51.21;100101.96;108253;1273;21970;-80
2022/04/19 08:24:07;;;;;;;7.50;4.50;;;;;;;8.43;51.71;100107.50;108589;1267;21972;-79
2022/04/19 08:26:48;;;;;;;8.20;5.20;;;;;;;8.21;52.00;100117.16;109036;1263;23046;-77
2022/04/19 08:29:25;;;;;;;4.70;4.00;;;;;;;8.00;52.25;100122.10;109291;1264;22801;-78
2022/04/19 08:32:06;;;;;;;5.30;4.40;;;;;;;7.85;52.71;100118.52;109275;1263;22036;-77
2022/04/19 08:34:49;;;;;;;5.40;4.50;;;;;;;7.75;53.03;100116.87;109289;1264;21997;-77
2022/04/19 08:37:39;;;;;;;8.20;5.30;;;;;;;7.70;53.61;100119.92;109273;1264;22078;-77
2022/04/19 08:40:13;;;;;;;6.80;4.80;;;;;;;7.65;53.66;100122.13;109353;1263;22040;-77
2022/04/19 08:42:50;;;;;;;5.70;4.50;;;;;;;7.59;53.80;100127.86;109377;1264;21980;-78
2022/04/19 08:45:36;;;;;;;5.10;4.30;;;;;;;7.52;54.08;100123.59;109568;1264;22278;-77
2022/04/19 08:48:10;;;;;;;5.20;3.80;;;;;;;7.50;54.33;100126.04;109289;1264;24039;-77
2022/04/19 08:50:49;;;;;;;4.50;4.00;;;;;;;7.47;54.29;100132.84;109264;1264;21976;-77
2022/04/19 08:59:29;;;;;;;9.60;5.00;;;;;;;7.36;54.88;100132.56;109016;1267;23691;-78
2022/04/19 09:02:10;;;;;;;;;;;;;;;;;;;;;
2022/04/19 09:05:29;;;;;;;;;;;;;;;;;;;;;
2022/04/19 09:08:15;;;;;;;10.40;3.50;;;;;;;7.17;54.68;100142.98;109135;1267;23038;-77
2022/04/19 09:11:04;;;;;;;8.60;6.40;;;;;;;7.14;55.09;100141.38;109014;1267;21988;-77
2022/04/19 09:13:44;;;;;;;5.80;4.00;;;;;;;7.19;55.39;100141.13;108989;1267;22073;-78
2022/04/19 09:16:15;;;;;;;5.20;4.20;;;;;;;7.23;55.40;100141.77;109019;1267;23593;-77
2022/04/19 09:19:00;;;;;;;9.00;3.50;;;;;;;7.27;55.41;100140.14;109291;1264;21974;-78
2022/04/19 09:21:42;;;;;;;22.30;20.00;;;;;;;7.32;55.39;100145.22;109311;1263;21986;-77
2022/04/19 09:24:18;;;;;;;6.60;4.70;;;;;;;7.35;55.11;100152.46;109290;1263;22045;-77
2022/04/19 09:27:34;;;;;;;3.40;2.90;;;;;;;7.36;54.89;100152.95;109498;1264;23679;-78
2022/04/19 09:30:22;;;;;;;4.30;3.50;;;;;;;7.38;54.79;100159.35;109326;1263;21966;-78
2022/04/19 09:33:07;;;;;;;4.10;3.60;;;;;;;7.38;54.48;100161.33;109562;1264;23782;-77
2022/04/19 09:35:56;;;;;;;6.20;4.40;;;;;;;7.34;54.43;100161.13;109458;1263;23888;-78
2022/04/19 09:38:55;;;;;;;7.00;4.40;;;;;;;7.34;54.66;100164.83;109626;1262;22040;-77
2022/04/19 09:41:34;;;;;;;6.40;4.00;;;;;;;7.32;54.65;100170.23;109433;1263;21972;-77
2022/04/19 09:44:40;;;;;;;4.30;3.20;;;;;;;7.29;54.57;100175.66;109157;1267;21978;-78
2022/04/19 09:47:13;;;;;;;6.60;3.40;;;;;;;7.21;54.38;100177.86;108888;1272;21990;-78
2022/04/19 09:50:25;;;;;;;7.10;3.60;;;;;;;7.13;54.33;100192.96;108727;1271;22028;-78
2022/04/19 09:53:06;;;;;;;3.80;3.30;;;;;;;7.05;54.48;100189.66;108891;1270;21995;-78
2022/04/19 09:56:10;;;;;;;4.80;3.70;;;;;;;7.05;54.61;100193.92;108933;1273;22001;-78
2022/04/19 09:58:54;;;;;;;4.40;3.10;;;;;;;7.10;54.83;100199.62;108601;1276;22001;-78
2022/04/19 10:10:23;;;;;;;;;;;;;;;;;;;;;
2022/04/19 10:13:01;;;;;;;5.30;4.30;;;;;;;7.56;54.51;100206.98;108352;1277;21980;-79
2022/04/19 10:15:45;;;;;;;5.20;4.50;;;;;;;7.73;55.04;100208.58;108375;1276;22978;-77
2022/04/19 10:18:18;;;;;;;5.40;4.70;;;;;;;8.01;54.77;100214.08;108495;1276;22935;-78
2022/04/19 10:21:11;;;;;;;6.30;5.70;;;;;;;8.03;53.43;100214.95;109115;1266;21978;-78
2022/04/19 10:23:46;;;;;;;8.90;5.50;;;;;;;7.93;52.99;100218.50;108936;1267;21991;-77
2022/04/19 10:26:51;;;;;;;7.90;5.50;;;;;;;7.80;53.07;100219.45;108972;1267;22752;-78
2022/04/19 10:29:37;;;;;;;4.50;4.10;;;;;;;7.77;53.36;100224.46;108468;1273;22248;-78
2022/04/19 10:32:20;;;;;;;;;;;;;;;;;;;;;
2022/04/19 10:35:13;;;;;;;;;;;;;;;;;;;;;
2022/04/19 10:37:49;;;;;;;5.70;5.10;;;;;;;7.73;53.44;100225.45;108228;1279;23723;-77
2022/04/19 10:40:32;;;;;;;;;;;;;;;;;;;;;
2022/04/19 10:43:13;;;;;;;4.50;4.00;;;;;;;7.92;53.48;100232.49;108194;1279;23841;-79
2022/04/19 10:45:46;;;;;;;5.50;5.00;;;;;;;7.99;52.99;100240.34;108142;1279;22497;-79
2022/04/19 10:48:27;;;;;;;8.60;5.50;;;;;;;8.07;53.01;100241.53;108454;1278;21997;-78
2022/04/19 10:51:34;;;;;;;7.50;6.20;;;;;;;8.22;53.05;100237.17;108250;1278;22159;-77
2022/04/19 10:54:23;;;;;;;6.10;5.60;;;;;;;8.39;52.61;100239.16;108711;1269;22001;-77
2022/04/19 11:00:27;;;;;;;8.70;7.90;;;;;;;8.37;51.26;100243.55;109442;1264;23880;-78
2022/04/19 11:03:19;;;;;;;8.30;7.50;;;;;;;8.31;51.33;100243.87;109405;1264;22747;-77
2022/04/19 11:05:53;;;;;;;8.00;7.20;;;;;;;8.35;51.66;100246.45;109410;1263;22206;-78
2022/04/19 11:08:29;;;;;;;7.90;7.20;;;;;;;8.44;51.73;100244.59;109357;1264;21981;-78
2022/04/19 11:11:07;;;;;;;7.70;7.00;;;;;;;8.58;51.88;100245.42;108907;1270;23162;-78
2022/04/19 11:13:40;;;;;;;7.70;7.00;;;;;;;8.69;51.51;100245.87;108783;1273;23694;-78
2022/04/19 11:16:13;;;;;;;6.50;5.90;;;;;;;8.78;51.34;100251.10;108545;1273;23609;-78
2022/04/19 11:19:05;;;;;;;6.10;5.50;;;;;;;8.85;51.00;100250.75;108729;1273;22156;-79
2022/04/19 11:22:01;;;;;;;6.40;5.90;;;;;;;8.94;50.65;100253.89;108401;1277;21997;-78
2022/04/19 11:25:03;;;;;;;8.10;6.20;;;;;;;9.05;50.63;100260.62;108086;1282;21998;-78
2022/04/19 11:28:15;;;;;;;6.90;6.20;;;;;;;9.15;50.12;100263.98;107679;1288;22969;-78
2022/04/19 11:31:13;;;;;;;7.30;6.70;;;;;;;9.13;49.26;100269.84;107596;1288;23112;-79
2022/04/19 11:34:14;;;;;;;10.60;6.60;;;;;;;8.96;48.93;100270.52;107601;1288;22781;-78
2022/04/19 11:37:04;;;;;;;8.90;6.60;;;;;;;9.03;49.51;100278.67;107619;1288;545084;-79
2022/04/19 11:48:37;;;;;;;12.00;8.70;;;;;;;8.64;49.67;100290.11;110200;1260;21991;-78
2022/04/19 11:51:15;;;;;;;8.70;6.70;;;;;;;8.59;49.92;100286.35;110173;1254;277341;-78
2022/04/19 11:53:56;;;;;;;;;;;;;;;;;;;;;
2022/04/19 11:56:34;;;;;;;7.80;7.00;;;;;;;8.60;50.28;100285.19;110200;1258;24294;-79
2022/04/19 11:59:12;;;;;;;10.10;7.10;;;;;;;8.70;50.48;100288.17;110255;1257;25043;-78
2022/04/19 12:01:49;;;;;;;7.70;6.90;;;;;;;8.80;50.54;100287.09;109617;1265;23185;-77
2022/04/19 12:04:21;;;;;;;11.00;6.80;;;;;;;8.92;50.65;100283.04;109312;1262;24045;-79
2022/04/19 12:07:03;;;;;;;9.20;6.40;;;;;;;9.05;50.27;100286.96;109337;1266;21974;-78
2022/04/19 12:09:36;;;;;;;7.90;6.10;;;;;;;9.12;50.14;100283.10;109307;1264;22741;-79
2022/04/19 12:12:07;;;;;;;6.50;5.30;;;;;;;9.19;49.75;100289.73;109108;1267;24360;-78
2022/04/19 12:14:39;;;;;;;7.60;5.90;;;;;;;9.22;49.57;100285.05;109091;1268;23755;-79
2022/04/19 12:17:10;;;;;;;7.20;5.70;;;;;;;9.32;49.76;100283.83;109154;1267;22041;-79
2022/04/19 12:20:04;;;;;;;5.90;5.40;;;;;;;9.42;49.39;100282.39;108742;1268;23041;-80
2022/04/19 12:23:04;;;;;;;;;;;;;;;;;;;;;
2022/04/19 12:25:39;;;;;;;5.40;4.90;;;;;;;9.41;48.80;100279.73;109099;1270;21994;-78
2022/04/19 12:28:13;;;;;;;5.90;5.30;;;;;;;9.49;48.84;100278.55;108925;1270;21998;-77
2022/04/19 12:30:47;;;;;;;5.70;5.10;;;;;;;9.54;48.46;100277.64;108562;1271;22007;-78
2022/04/19 12:33:17;;;;;;;5.30;4.80;;;;;;;9.58;48.22;100277.70;108616;1273;21988;-77
2022/04/19 12:35:54;;;;;;;7.30;6.60;;;;;;;9.56;47.84;100273.59;109079;1273;24370;-78
2022/04/19 12:38:31;;;;;;;6.50;5.50;;;;;;;9.54;47.80;100277.25;109127;1267;23862;-78
2022/04/19 12:41:15;;;;;;;5.30;4.80;;;;;;;9.51;47.59;100277.59;109736;1261;21976;-78
2022/04/19 12:43:47;;;;;;;7.80;6.00;;;;;;;9.49;47.65;100276.61;109693;1262;22526;-78
2022/04/19 12:46:22;;;;;;;6.50;5.90;;;;;;;9.54;47.87;100274.10;109905;1261;23008;-78
2022/04/19 12:48:56;;;;;;;9.30;6.30;;;;;;;9.62;47.84;100269.60;110176;1255;22042;-79
2022/04/19 12:51:36;;;;;;;10.30;8.90;;;;;;;9.71;47.88;100267.77;110726;1251;21960;-78
2022/04/19 12:54:08;;;;;;;6.50;5.90;;;;;;;9.83;47.84;100275.71;110449;1256;21966;-78
2022/04/19 12:56:41;;;;;;;8.30;6.20;;;;;;;9.72;46.34;100272.67;109877;1262;22567;-78
2022/04/19 12:59:18;;;;;;;6.80;6.20;;;;;;;9.57;46.44;100267.98;110091;1260;23758;-78
2022/04/19 13:01:47;;;;;;;9.60;7.20;;;;;;;9.57;46.97;100265.33;110020;1259;21967;-79
2022/04/19 13:04:19;;;;;;;7.10;6.40;;;;;;;9.66;47.07;100274.39;109863;1260;21992;-78
2022/04/19 13:12:36;;;;;;;6.80;6.20;;;;;;;9.55;46.32;100268.02;110039;1260;21969;-78
2022/04/19 13:15:08;;;;;;;8.40;7.60;;;;;;;9.55;46.56;100266.13;110489;1254;21957;-79
2022/04/19 13:17:44;;;;;;;7.00;6.40;;;;;;;9.55;46.51;100265.44;110364;1257;21989;-78
2022/04/19 13:20:16;;;;;;;6.60;6.00;;;;;;;9.51;46.62;100261.31;110941;1254;21965;-79
2022/04/19 13:22:46;;;;;;;9.70;6.70;;;;;;;9.49;46.62;100257.63;111093;1250;23599;-79
2022/04/19 13:25:16;;;;;;;5.80;5.30;;;;;;;9.46;46.42;100259.73;110774;1251;21969;-78
2022/04/19 13:27:54;;;;;;;5.70;5.20;;;;;;;9.40;46.35;100260.30;110753;1251;22827;-78
2022/04/19 13:30:28;;;;;;;7.00;6.10;;;;;;;9.36;46.28;100256.09;110883;1250;23016;-78
2022/04/19 13:33:00;;;;;;;6.00;5.40;;;;;;;9.40;46.66;100259.42;110842;1251;23126;-77
2022/04/19 13:35:37;;;;;;;6.20;5.60;;;;;;;9.48;46.80;100254.55;110606;1251;22150;-78
2022/04/19 13:38:26;;;;;;;5.90;4.90;;;;;;;9.57;46.35;100257.27;110766;1251;23083;-78
2022/04/19 13:41:01;;;;;;;5.00;4.50;;;;;;;9.60;45.98;100258.16;110426;1254;22750;-79
2022/04/19 13:43:31;;;;;;;6.30;4.40;;;;;;;9.67;45.77;100261.33;110343;1254;23770;-77
2022/04/19 13:46:05;;;;;;;5.50;5.00;;;;;;;9.72;45.27;100260.05;110537;1254;21994;-77
2022/04/19 13:48:34;;;;;;;6.10;5.60;;;;;;;9.78;45.39;100262.71;110787;1257;23612;-78
2022/04/19 13:51:05;;;;;;;7.50;6.00;;;;;;;9.82;45.24;100266.23;110640;1254;21990;-77
2022/04/19 13:53:37;;;;;;;8.10;6.50;;;;;;;9.75;45.13;100272.58;110625;1254;22619;-77
2022/04/19 13:56:10;;;;;;;6.50;5.90;;;;;;;9.65;45.31;100268.91;110564;1254;22898;-78
2022/04/19 13:58:43;;;;;;;7.90;6.90;;;;;;;9.60;45.73;100263.27;110540;1250;21983;-78
2022/04/19 14:01:31;;;;;;;6.30;5.30;;;;;;;9.60;45.93;100268.52;110935;1250;21974;-77
2022/04/19 14:04:03;;;;;;;8.20;6.40;;;;;;;9.56;45.70;100268.84;111006;1251;23060;-78
2022/04/19 14:06:38;;;;;;;8.80;7.60;;;;;;;9.50;45.64;100270.48;110942;1251;21976;-78
2022/04/19 14:09:08;;;;;;;10.10;7.60;;;;;;;9.48;45.93;100272.16;110732;1251;23676;-78
2022/04/19 14:11:42;;;;;;;6.10;5.50;;;;;;;9.49;46.07;100276.98;110685;1251;24302;-77
2022/04/19 14:14:34;;;;;;;8.00;6.30;;;;;;;9.45;45.65;100271.69;110434;1255;23587;-78